Time;durP1;ratioP1;P1;durP2;ratioP2;P2;SDS_P1;SDS_P2;PMS_P1;PMS_P2;Temp;Humidity;BMP_temperature;BMP_pressure;BME280_temperature;BME280_humidity;BME280_pressure;Samples;Min_cycle;Max_cycle;Signal;HPM_P1;HPM_P2
2023/05/08 12:46:56;;;;;;;5.30;0.63;;;;;;;18.11;100.00;101073.75;5132989;27;20403;-56
2023/05/08 12:49:29;;;;;;;0.40;0.20;;;;;;;18.00;100.00;101076.16;5131485;27;20458;-61
2023/05/08 12:52:05;;;;;;;1.83;0.68;;;;;;;17.93;100.00;101079.97;5131188;27;20023;-58
2023/05/08 12:54:40;;;;;;;0.50;0.30;;;;;;;18.05;100.00;101070.94;5131297;27;21528;-58
2023/05/08 12:57:13;;;;;;;1.40;0.28;;;;;;;18.17;100.00;101067.47;5128702;27;20024;-59
2023/05/08 12:59:39;;;;;;;0.30;0.10;;;;;;;18.29;100.00;101062.97;5130666;27;20687;-59
2023/05/08 13:02:15;;;;;;;4.15;0.10;;;;;;;18.25;100.00;101080.56;5129067;27;20492;-61
2023/05/08 13:04:41;;;;;;;1.27;0.50;;;;;;;18.36;100.00;101069.09;5132211;27;20367;-59
2023/05/08 13:07:12;;;;;;;1.83;0.17;;;;;;;18.65;100.00;101074.66;5124896;27;20027;-62
2023/05/08 13:09:38;;;;;;;1.13;0.40;;;;;;;18.86;100.00;101059.88;5125773;27;20031;-65
2023/05/08 13:12:05;;;;;;;3.70;0.47;;;;;;;19.05;100.00;101055.22;5127094;27;20390;-60
2023/05/08 13:14:30;;;;;;;1.35;0.65;;;;;;;19.18;100.00;101049.63;5125654;27;20150;-57
2023/05/08 13:16:58;;;;;;;0.65;0.10;;;;;;;18.98;100.00;101041.09;5126716;27;20213;-58
2023/05/08 13:19:23;;;;;;;2.92;0.50;;;;;;;18.72;100.00;101052.00;5129739;27;20039;-66
2023/05/08 13:21:51;;;;;;;0.30;0.17;;;;;;;18.88;100.00;101055.91;5126005;27;20035;-58
2023/05/08 13:24:28;;;;;;;0.15;0.10;;;;;;;19.13;100.00;101046.81;5118592;27;20186;-62
2023/05/08 13:26:55;;;;;;;0.98;0.30;;;;;;;19.31;100.00;101052.06;5121144;27;21443;-65
2023/05/08 13:29:20;;;;;;;0.43;0.20;;;;;;;19.24;100.00;101046.00;5129643;27;20092;-64
2023/05/08 13:31:48;;;;;;;1.38;0.28;;;;;;;19.11;100.00;101038.19;5129013;27;20129;-65
2023/05/08 13:34:14;;;;;;;0.28;0.10;;;;;;;19.18;100.00;101046.94;5123573;27;20035;-65
2023/05/08 13:36:42;;;;;;;0.10;0.10;;;;;;;19.14;100.00;101057.31;5129243;27;20050;-65
2023/05/08 13:39:08;;;;;;;1.75;0.57;;;;;;;18.86;100.00;101049.94;5127454;27;20035;-56
2023/05/08 13:41:41;;;;;;;3.15;0.40;;;;;;;18.91;100.00;101052.75;5119651;27;20023;-64
2023/05/08 13:44:09;;;;;;;1.10;0.88;;;;;;;18.83;100.00;101052.28;5120572;27;20029;-64
2023/05/08 13:46:37;;;;;;;2.38;0.35;;;;;;;18.78;100.00;101052.16;5139360;27;20080;-67
2023/05/08 13:49:02;;;;;;;1.30;0.20;;;;;;;18.81;100.00;101038.28;5133618;27;20030;-63
2023/05/08 13:51:30;;;;;;;1.38;0.80;;;;;;;18.70;100.00;101034.50;5133564;27;20034;-60
2023/05/08 13:53:55;;;;;;;1.73;0.20;;;;;;;18.51;100.00;101031.09;5138373;27;20022;-58
2023/05/08 13:56:30;;;;;;;0.22;0.20;;;;;;;18.57;100.00;101027.47;5135905;27;20026;-56
2023/05/08 13:58:55;;;;;;;0.80;0.30;;;;;;;18.58;100.00;101021.03;5138230;27;20027;-66
2023/05/08 14:01:20;;;;;;;0.10;0.10;;;;;;;18.50;100.00;101016.81;5139030;27;20038;-66
2023/05/08 14:03:46;;;;;;;1.42;0.10;;;;;;;18.50;100.00;101019.50;5139155;27;20042;-58
2023/05/08 14:06:11;;;;;;;2.33;0.43;;;;;;;18.52;100.00;101017.41;5117601;27;20454;-62
2023/05/08 14:08:36;;;;;;;0.98;0.20;;;;;;;18.41;100.00;101020.91;5134546;27;20462;-57
2023/05/08 14:11:01;;;;;;;0.10;0.03;;;;;;;18.39;100.00;101025.66;5137038;27;20395;-56
2023/05/08 14:13:27;;;;;;;1.25;0.20;;;;;;;18.02;100.00;101022.28;5137288;27;20034;-58
2023/05/08 14:15:52;;;;;;;0.75;0.75;;;;;;;18.01;100.00;101018.75;5137436;27;20450;-63
2023/05/08 14:18:17;;;;;;;0.45;0.20;;;;;;;17.89;100.00;101007.19;5137664;27;20031;-65
2023/05/08 14:20:43;;;;;;;1.60;0.20;;;;;;;18.01;100.00;101010.72;5132934;27;20505;-57
2023/05/08 14:23:08;;;;;;;1.52;1.02;;;;;;;17.84;100.00;101010.53;5137149;27;20472;-62
2023/05/08 14:25:33;;;;;;;0.52;0.15;;;;;;;17.92;100.00;101013.97;5136204;27;20098;-59
2023/05/08 14:27:59;;;;;;;0.57;0.40;;;;;;;17.94;100.00;101007.31;5133187;27;20198;-54
2023/05/08 14:30:24;;;;;;;0.47;0.47;;;;;;;17.95;100.00;101000.09;5136943;27;20039;-57
2023/05/08 14:32:49;;;;;;;1.83;0.60;;;;;;;17.97;100.00;101001.50;5124534;27;20027;-64
2023/05/08 14:35:15;;;;;;;2.13;0.10;;;;;;;17.90;100.00;101000.75;5132817;27;20030;-60
2023/05/08 14:37:40;;;;;;;1.33;0.20;;;;;;;17.92;100.00;100985.25;5136286;27;20026;-61
2023/05/08 14:40:06;;;;;;;1.52;0.40;;;;;;;17.83;100.00;100987.41;5129733;27;20070;-64
2023/05/08 14:42:32;;;;;;;1.23;1.00;;;;;;;17.83;100.00;100984.75;5110418;27;20035;-56
2023/05/08 14:44:57;;;;;;;2.10;0.82;;;;;;;17.71;100.00;100989.22;5131277;27;20415;-59
2023/05/08 14:47:23;;;;;;;2.65;0.88;;;;;;;17.87;100.00;100987.81;5132926;27;20509;-55
2023/05/08 14:49:48;;;;;;;1.58;0.63;;;;;;;17.73;100.00;100987.13;5132497;27;20031;-58
2023/05/08 14:52:14;;;;;;;1.13;0.88;;;;;;;17.66;100.00;100987.22;5124332;27;20126;-60
2023/05/08 14:54:39;;;;;;;3.55;1.05;;;;;;;17.48;100.00;100992.59;5112143;27;20031;-56
2023/05/08 14:57:04;;;;;;;1.20;1.10;;;;;;;17.60;100.00;100993.47;5106183;27;20051;-56
2023/05/08 14:59:30;;;;;;;1.90;1.70;;;;;;;17.55;100.00;100987.13;5111142;27;20472;-67
2023/05/08 15:01:55;;;;;;;1.77;1.00;;;;;;;17.40;100.00;100987.53;5106600;27;20023;-66
2023/05/08 15:04:20;;;;;;;3.90;1.77;;;;;;;17.52;100.00;100987.59;5098074;27;20042;-67
2023/05/08 15:06:46;;;;;;;2.47;1.98;;;;;;;17.57;100.00;100983.19;5118376;27;20023;-61
2023/05/08 15:09:11;;;;;;;5.32;2.40;;;;;;;17.50;100.00;100982.44;5112556;27;20054;-63
2023/05/08 15:11:37;;;;;;;1.10;1.00;;;;;;;17.31;100.00;100978.16;5126791;27;20137;-63
2023/05/08 15:14:03;;;;;;;4.85;2.22;;;;;;;17.44;100.00;100978.00;5116684;27;20031;-59
2023/05/08 15:16:29;;;;;;;1.77;1.60;;;;;;;17.43;100.00;100981.72;5125783;27;20448;-57
2023/05/08 15:18:54;;;;;;;2.28;1.05;;;;;;;17.51;100.00;100978.75;5119722;27;20042;-56
2023/05/08 15:21:24;;;;;;;3.22;1.17;;;;;;;17.52;100.00;100975.00;5116642;27;20057;-66
2023/05/08 15:23:51;;;;;;;4.30;1.67;;;;;;;17.37;100.00;100979.91;5122716;27;20065;-55
2023/05/08 15:26:16;;;;;;;1.67;1.20;;;;;;;17.40;100.00;100974.13;5124954;27;20075;-59
2023/05/08 15:28:41;;;;;;;7.00;1.35;;;;;;;17.22;100.00;100981.13;5124863;27;20062;-58
2023/05/08 15:31:07;;;;;;;1.45;0.82;;;;;;;17.12;100.00;100974.66;5110130;27;20502;-64
2023/05/08 15:33:32;;;;;;;0.90;0.90;;;;;;;17.14;100.00;100978.75;5113827;27;20031;-63
2023/05/08 15:35:57;;;;;;;1.38;1.30;;;;;;;17.18;100.00;100987.16;5114366;27;20039;-58
2023/05/08 15:38:23;;;;;;;0.98;0.88;;;;;;;17.08;100.00;100984.16;5123158;27;20062;-58
2023/05/08 15:40:48;;;;;;;1.67;1.40;;;;;;;17.05;100.00;100990.78;5103852;27;20548;-61
2023/05/08 15:43:14;;;;;;;2.60;2.35;;;;;;;16.87;100.00;100982.72;5110155;27;20046;-57
2023/05/08 15:45:39;;;;;;;1.73;1.63;;;;;;;17.00;100.00;100986.09;5115747;27;20046;-63
2023/05/08 15:48:05;;;;;;;3.33;1.85;;;;;;;17.12;100.00;100975.47;5111681;27;20032;-59
2023/05/08 15:50:30;;;;;;;7.18;3.35;;;;;;;17.09;100.00;100980.44;5121492;27;20091;-63
2023/05/08 15:52:55;;;;;;;2.15;1.85;;;;;;;16.91;100.00;100978.53;5107778;27;20027;-66
2023/05/08 15:55:20;;;;;;;2.00;1.75;;;;;;;16.90;100.00;100982.28;5109387;27;20054;-62
2023/05/08 15:57:46;;;;;;;2.90;1.35;;;;;;;16.89;100.00;100980.66;5112219;27;20824;-60
2023/05/08 16:00:12;;;;;;;2.25;2.05;;;;;;;16.93;100.00;100981.81;5111715;27;20476;-62
2023/05/08 16:02:38;;;;;;;3.08;1.27;;;;;;;16.97;100.00;100989.22;5120462;27;20031;-59
2023/05/08 16:05:03;;;;;;;1.30;1.02;;;;;;;16.91;100.00;100981.22;5114099;27;20058;-61
2023/05/08 16:07:28;;;;;;;2.58;1.85;;;;;;;17.03;100.00;100979.47;5115334;27;20468;-60
2023/05/08 16:09:54;;;;;;;2.95;0.75;;;;;;;17.00;100.00;100982.59;5125354;27;20023;-61
2023/05/08 16:12:19;;;;;;;2.70;1.08;;;;;;;16.98;100.00;100981.97;5109826;27;20031;-62
2023/05/08 16:14:44;;;;;;;1.83;1.73;;;;;;;16.95;100.00;100977.88;5118781;27;20509;-63
2023/05/08 16:17:10;;;;;;;1.77;0.93;;;;;;;16.99;100.00;100979.09;5116286;27;20556;-61
2023/05/08 16:19:38;;;;;;;1.92;1.00;;;;;;;17.10;100.00;100972.19;5118993;27;20088;-61
2023/05/08 16:22:04;;;;;;;2.45;1.55;;;;;;;16.87;100.00;100975.50;5099437;27;20154;-64
2023/05/08 16:24:30;;;;;;;2.13;1.55;;;;;;;16.75;100.00;100977.22;5108953;27;20023;-62
2023/05/08 16:26:55;;;;;;;1.17;1.08;;;;;;;16.70;100.00;100969.88;5112547;27;20115;-58
2023/05/08 16:29:21;;;;;;;4.10;1.10;;;;;;;16.66;100.00;100978.56;5106337;27;20088;-61
2023/05/08 16:31:46;;;;;;;4.30;2.00;;;;;;;16.68;100.00;100974.63;5110726;27;20461;-62
2023/05/08 16:34:11;;;;;;;3.00;1.25;;;;;;;16.57;100.00;100977.97;5111431;27;20092;-63
2023/05/08 16:36:36;;;;;;;1.42;0.50;;;;;;;16.58;100.00;100979.66;5107902;27;20063;-66
2023/05/08 16:39:02;;;;;;;1.33;1.23;;;;;;;16.59;100.00;100981.28;5108706;27;20023;-61
2023/05/08 16:41:27;;;;;;;0.52;0.52;;;;;;;16.58;100.00;100977.78;5115318;27;20063;-57
2023/05/08 16:43:53;;;;;;;2.40;1.02;;;;;;;16.70;100.00;100977.91;5115395;27;20040;-57
2023/05/08 16:46:20;;;;;;;0.68;0.55;;;;;;;16.67;100.00;100978.31;5107460;27;20483;-60
2023/05/08 16:48:47;;;;;;;2.75;1.08;;;;;;;16.66;100.00;100975.88;5123175;27;20051;-61
2023/05/08 16:51:12;;;;;;;2.22;1.30;;;;;;;16.62;100.00;100974.66;5114003;27;20101;-61
2023/05/08 16:53:37;;;;;;;0.77;0.70;;;;;;;16.49;100.00;100970.22;5119609;27;20130;-61
2023/05/08 16:56:03;;;;;;;4.20;0.73;;;;;;;16.43;100.00;100966.56;5113892;27;20514;-60
2023/05/08 16:58:28;;;;;;;1.10;0.63;;;;;;;16.25;100.00;100970.00;5118945;27;20037;-60
2023/05/08 17:00:54;;;;;;;1.73;1.48;;;;;;;16.35;100.00;100965.00;5123940;27;20451;-60
2023/05/08 17:03:19;;;;;;;8.90;4.40;;;;;;;16.24;100.00;100968.38;5119972;27;20035;-62
2023/05/08 17:05:47;;;;;;;32.33;12.30;;;;;;;16.39;100.00;100969.91;5109092;27;20450;-63
2023/05/08 17:08:13;;;;;;;13.40;6.20;;;;;;;16.28;100.00;100964.22;5110738;27;20403;-67
2023/05/08 17:10:38;;;;;;;5.93;2.72;;;;;;;16.13;100.00;100951.16;5113792;27;20043;-59
2023/05/08 17:13:04;;;;;;;1.98;1.15;;;;;;;16.29;100.00;100949.00;5099666;28;20368;-62
2023/05/08 17:15:32;;;;;;;1.10;0.93;;;;;;;16.27;100.00;100945.72;5116551;27;20042;-60
2023/05/08 17:18:03;;;;;;;2.28;1.92;;;;;;;16.22;100.00;100946.34;5119639;27;20032;-61
2023/05/08 17:20:28;;;;;;;2.60;1.90;;;;;;;16.44;100.00;100943.31;5114725;27;20691;-61
2023/05/08 17:22:53;;;;;;;1.60;1.00;;;;;;;16.46;100.00;100944.72;5121919;27;20076;-59
2023/05/08 17:25:21;;;;;;;1.17;0.90;;;;;;;16.52;100.00;100943.88;5112912;27;20793;-62
2023/05/08 17:27:46;;;;;;;1.25;0.73;;;;;;;16.50;100.00;100927.19;5108801;27;20031;-62
2023/05/08 17:30:15;;;;;;;0.90;0.90;;;;;;;16.48;100.00;100936.50;5119949;27;20015;-62
2023/05/08 17:32:42;;;;;;;0.65;0.60;;;;;;;16.41;100.00;100933.84;5127381;27;20475;-62
2023/05/08 17:35:09;;;;;;;0.40;0.40;;;;;;;16.48;100.00;100933.81;5120525;27;20391;-58
2023/05/08 17:37:34;;;;;;;0.50;0.50;;;;;;;16.53;100.00;100917.91;5107675;27;20023;-60
2023/05/08 17:40:00;;;;;;;0.50;0.50;;;;;;;16.53;100.00;100928.63;5117624;27;20393;-61
2023/05/08 17:42:25;;;;;;;1.27;0.77;;;;;;;16.49;100.00;100922.06;5120472;27;20290;-58
2023/05/08 17:44:50;;;;;;;1.25;0.60;;;;;;;16.51;100.00;100928.00;5116836;27;20051;-62
2023/05/08 17:47:16;;;;;;;1.10;0.82;;;;;;;16.51;100.00;100944.06;5120216;27;20027;-60
2023/05/08 17:49:41;;;;;;;2.88;1.40;;;;;;;16.53;100.00;100936.66;5126515;27;20027;-63
2023/05/08 17:52:06;;;;;;;1.02;1.00;;;;;;;16.39;100.00;100935.91;5128749;27;20018;-61
2023/05/08 17:54:32;;;;;;;2.63;1.48;;;;;;;16.35;100.00;100938.22;5103519;27;20031;-62
2023/05/08 17:56:57;;;;;;;0.95;0.95;;;;;;;16.39;100.00;100932.44;5108878;27;20137;-61
2023/05/08 17:59:22;;;;;;;1.45;1.35;;;;;;;16.43;100.00;100925.63;5116503;27;20111;-61
2023/05/08 18:01:48;;;;;;;0.65;0.65;;;;;;;16.40;100.00;100918.84;5121681;27;20031;-62
2023/05/08 18:04:13;;;;;;;3.03;0.65;;;;;;;16.24;100.00;100928.25;5121496;27;20027;-60
2023/05/08 18:06:38;;;;;;;1.23;1.08;;;;;;;16.23;100.00;100929.25;5111271;27;20023;-62
2023/05/08 18:09:04;;;;;;;1.48;1.10;;;;;;;16.19;100.00;100932.59;5114358;27;20043;-61
2023/05/08 18:11:35;;;;;;;1.27;1.10;;;;;;;16.24;100.00;100924.75;5124783;27;20027;-62
2023/05/08 18:14:01;;;;;;;3.63;1.48;;;;;;;16.19;100.00;100920.03;5115324;27;20751;-63
2023/05/08 18:16:29;;;;;;;4.18;2.15;;;;;;;16.12;100.00;100913.91;5110035;27;20525;-59
2023/05/08 18:18:54;;;;;;;3.10;1.30;;;;;;;16.09;100.00;100909.81;5123060;27;20035;-61
2023/05/08 18:21:22;;;;;;;2.00;1.80;;;;;;;16.09;100.00;100922.38;5108969;27;20526;-61
2023/05/08 18:23:47;;;;;;;3.83;1.65;;;;;;;16.15;100.00;100910.81;5113767;27;20041;-61
2023/05/08 18:26:13;;;;;;;2.22;2.03;;;;;;;16.16;100.00;100908.94;5111382;27;20154;-59
2023/05/08 18:28:39;;;;;;;2.22;2.03;;;;;;;16.17;100.00;100908.75;5117336;27;20034;-60
2023/05/08 18:31:04;;;;;;;3.22;1.85;;;;;;;16.23;100.00;100896.34;5115307;27;20023;-62
2023/05/08 18:33:32;;;;;;;4.40;3.20;;;;;;;16.21;100.00;100893.06;5113676;27;20036;-61
2023/05/08 18:35:58;;;;;;;3.15;2.13;;;;;;;16.17;100.00;100908.75;5119239;27;20125;-57
2023/05/08 18:38:26;;;;;;;3.72;2.03;;;;;;;16.06;100.00;100901.41;5129290;27;20476;-61
2023/05/08 18:40:51;;;;;;;4.82;2.20;;;;;;;16.17;100.00;100902.56;5122562;27;20035;-60
2023/05/08 18:43:16;;;;;;;6.18;2.90;;;;;;;16.19;100.00;100897.84;5114683;27;20058;-62
2023/05/08 18:45:42;;;;;;;2.88;2.00;;;;;;;16.26;100.00;100885.19;5123866;27;20049;-63
2023/05/08 18:48:08;;;;;;;2.70;2.15;;;;;;;16.19;100.00;100882.59;5120619;27;20495;-61
2023/05/08 18:50:33;;;;;;;3.00;2.72;;;;;;;16.25;100.00;100876.34;5123811;27;20058;-63
2023/05/08 18:52:58;;;;;;;7.70;3.00;;;;;;;16.21;100.00;100877.00;5119465;27;20701;-63
2023/05/08 18:55:25;;;;;;;3.72;2.58;;;;;;;16.18;100.00;100866.75;5117095;27;20032;-66
2023/05/08 18:57:51;;;;;;;5.80;2.95;;;;;;;16.12;100.00;100868.44;5132845;27;20037;-59
2023/05/08 19:00:16;;;;;;;6.18;4.18;;;;;;;16.11;100.00;100874.84;5121305;27;20028;-60
2023/05/08 19:02:45;;;;;;;3.75;3.08;;;;;;;16.08;100.00;100877.94;5121545;27;20027;-59
2023/05/08 19:05:10;;;;;;;2.90;2.42;;;;;;;16.18;100.00;100877.44;5109423;27;20600;-66
2023/05/08 19:07:41;;;;;;;5.50;3.10;;;;;;;16.12;100.00;100868.44;5119091;27;20029;-63
2023/05/08 19:10:07;;;;;;;4.57;3.70;;;;;;;16.12;100.00;100873.78;5101893;27;20031;-62
2023/05/08 19:12:35;;;;;;;7.43;4.35;;;;;;;16.14;100.00;100871.72;5119621;27;20608;-61
2023/05/08 19:15:00;;;;;;;4.32;3.65;;;;;;;16.05;100.00;100871.16;5116972;27;20864;-64
2023/05/08 19:17:26;;;;;;;6.45;3.63;;;;;;;16.08;100.00;100877.94;5121592;27;20034;-61
2023/05/08 19:19:51;;;;;;;8.02;3.90;;;;;;;16.11;100.00;100878.34;5134082;27;20034;-65
2023/05/08 19:22:22;;;;;;;4.85;4.18;;;;;;;16.21;100.00;100875.19;5131744;27;20518;-61
2023/05/08 19:24:50;;;;;;;4.97;4.03;;;;;;;16.23;100.00;100870.41;5127153;27;20048;-60
2023/05/08 19:27:18;;;;;;;5.60;3.72;;;;;;;16.17;100.00;100865.13;5113429;27;20523;-55
2023/05/08 19:29:45;;;;;;;4.30;3.90;;;;;;;16.14;100.00;100864.50;5133016;27;20105;-61
2023/05/08 19:32:13;;;;;;;6.88;3.83;;;;;;;16.10;100.00;100863.31;5127399;27;20037;-59
2023/05/08 19:34:39;;;;;;;6.50;3.88;;;;;;;16.19;100.00;100858.50;5123152;27;20073;-65
2023/05/08 19:37:05;;;;;;;4.95;3.80;;;;;;;16.20;100.00;100857.47;5136303;27;20038;-58
2023/05/08 19:39:32;;;;;;;3.50;2.95;;;;;;;16.25;100.00;100856.81;5112426;27;20034;-60
2023/05/08 19:42:01;;;;;;;4.10;3.65;;;;;;;16.29;100.00;100850.81;5128859;27;20351;-56
2023/05/08 19:44:32;;;;;;;5.53;3.15;;;;;;;16.37;100.00;100852.38;5134108;27;20031;-61
2023/05/08 19:47:00;;;;;;;5.68;2.95;;;;;;;16.46;100.00;100850.25;5133374;27;20087;-60
2023/05/08 19:49:26;;;;;;;6.57;2.60;;;;;;;16.52;100.00;100855.53;5128124;27;20545;-60
2023/05/08 19:51:51;;;;;;;7.20;3.85;;;;;;;16.42;100.00;100849.88;5130362;27;20126;-60
2023/05/08 19:54:16;;;;;;;6.28;3.50;;;;;;;16.42;100.00;100846.34;5134266;27;20443;-61
2023/05/08 19:56:43;;;;;;;3.45;2.53;;;;;;;16.39;100.00;100854.81;5131140;27;20037;-54
2023/05/08 19:59:11;;;;;;;7.95;4.05;;;;;;;16.32;100.00;100838.84;5129175;27;20040;-60
2023/05/08 20:01:37;;;;;;;4.90;3.17;;;;;;;16.39;100.00;100842.25;5134124;27;20476;-61
2023/05/08 20:04:02;;;;;;;3.40;3.10;;;;;;;16.33;100.00;100849.31;5112001;27;20071;-61
2023/05/08 20:06:30;;;;;;;3.67;3.22;;;;;;;16.40;100.00;100848.47;5108275;27;20040;-61
2023/05/08 20:08:55;;;;;;;5.25;3.08;;;;;;;16.36;100.00;100840.84;5129686;27;20035;-60
2023/05/08 20:11:20;;;;;;;6.30;3.55;;;;;;;16.45;100.00;100835.22;5126417;27;20023;-60
2023/05/08 20:13:51;;;;;;;6.13;3.75;;;;;;;16.50;100.00;100838.06;5130742;27;20035;-59
2023/05/08 20:16:17;;;;;;;3.40;2.95;;;;;;;16.44;100.00;100831.72;5134665;27;20079;-62
2023/05/08 20:18:52;;;;;;;5.72;3.83;;;;;;;16.39;100.00;100828.06;5131432;27;20660;-62
2023/05/08 20:21:17;;;;;;;7.05;3.08;;;;;;;16.41;100.00;100831.34;5134702;27;20035;-63
2023/05/08 20:23:44;;;;;;;6.88;3.67;;;;;;;16.35;100.00;100833.06;5131354;27;20023;-64
2023/05/08 20:26:09;;;;;;;3.67;2.78;;;;;;;16.32;100.00;100818.25;5133232;27;20034;-59
2023/05/08 20:28:34;;;;;;;5.13;3.45;;;;;;;16.24;100.00;100823.91;5135970;27;20524;-61
2023/05/08 20:31:05;;;;;;;3.75;2.88;;;;;;;16.24;100.00;100823.09;5133211;27;20055;-61
2023/05/08 20:33:31;;;;;;;3.72;2.55;;;;;;;16.30;100.00;100817.66;5120196;27;20050;-62
2023/05/08 20:35:59;;;;;;;3.88;1.85;;;;;;;16.32;100.00;100823.59;5119102;27;20149;-62
2023/05/08 20:38:24;;;;;;;3.70;2.63;;;;;;;16.32;100.00;100815.59;5128303;27;20610;-63
2023/05/08 20:40:54;;;;;;;7.28;2.42;;;;;;;16.29;100.00;100812.53;5133537;27;20122;-59
2023/05/08 20:43:20;;;;;;;1.25;1.15;;;;;;;16.40;100.00;100813.66;5123546;27;20018;-62
2023/05/08 20:45:48;;;;;;;4.65;1.58;;;;;;;16.38;100.00;100805.84;5121058;27;20522;-64
2023/05/08 20:48:13;;;;;;;2.22;2.03;;;;;;;16.36;100.00;100811.41;5128648;27;20039;-62
2023/05/08 20:50:41;;;;;;;1.27;0.98;;;;;;;16.36;100.00;100806.06;5132863;27;20015;-64
2023/05/08 20:53:06;;;;;;;2.10;1.73;;;;;;;16.30;100.00;100795.44;5132402;27;20031;-63
2023/05/08 20:55:32;;;;;;;2.58;1.45;;;;;;;16.26;100.00;100802.25;5131180;27;20490;-64
2023/05/08 20:58:00;;;;;;;1.10;1.00;;;;;;;16.25;100.00;100798.78;5133906;27;20031;-62
2023/05/08 21:00:26;;;;;;;1.63;1.52;;;;;;;16.19;100.00;100793.50;5130290;27;20063;-62
2023/05/08 21:02:51;;;;;;;1.42;1.33;;;;;;;16.21;100.00;100789.56;5134582;27;20123;-63
2023/05/08 21:05:17;;;;;;;2.22;1.15;;;;;;;16.24;100.00;100790.97;5120341;27;20186;-63
2023/05/08 21:07:43;;;;;;;2.40;1.85;;;;;;;16.32;100.00;100794.19;5133669;27;20045;-62
2023/05/08 21:10:08;;;;;;;0.80;0.80;;;;;;;16.32;100.00;100794.19;5138740;27;20387;-63
2023/05/08 21:12:34;;;;;;;0.55;0.55;;;;;;;16.29;100.00;100783.94;5116520;27;20028;-62
2023/05/08 21:15:02;;;;;;;1.63;0.68;;;;;;;16.32;100.00;100788.81;5121375;27;20077;-63
2023/05/08 21:17:30;;;;;;;1.33;1.23;;;;;;;16.26;100.00;100775.50;5092723;27;20150;-62
2023/05/08 21:19:57;;;;;;;1.75;0.77;;;;;;;16.20;100.00;100774.53;5127889;27;20538;-62
2023/05/08 21:22:23;;;;;;;1.35;1.25;;;;;;;16.27;100.00;100774.47;5112682;27;20022;-62
2023/05/08 21:24:48;;;;;;;1.30;1.20;;;;;;;16.33;100.00;100760.22;5139626;27;20071;-64
2023/05/08 21:27:14;;;;;;;1.58;1.45;;;;;;;16.36;100.00;100763.25;5138222;27;20527;-62
2023/05/08 21:29:39;;;;;;;0.73;0.73;;;;;;;16.32;100.00;100772.78;5136367;27;20031;-63
2023/05/08 21:32:05;;;;;;;1.60;1.35;;;;;;;16.33;100.00;100769.03;5133269;27;20034;-63
2023/05/08 21:34:30;;;;;;;1.58;1.10;;;;;;;16.39;100.00;100753.13;5138217;27;20079;-63
2023/05/08 21:36:55;;;;;;;1.40;1.08;;;;;;;16.43;100.00;100755.16;5132332;27;20030;-61
2023/05/08 21:39:20;;;;;;;4.65;1.13;;;;;;;16.45;100.00;100752.28;5135121;27;20629;-64
2023/05/08 21:41:46;;;;;;;1.30;1.10;;;;;;;16.41;100.00;100743.03;5132378;27;20023;-61
2023/05/08 21:44:12;;;;;;;1.40;1.30;;;;;;;16.38;100.00;100740.81;5136369;27;20027;-62
2023/05/08 21:46:38;;;;;;;1.23;0.45;;;;;;;16.36;100.00;100733.81;5123958;27;20050;-61
2023/05/08 21:49:03;;;;;;;0.90;0.45;;;;;;;16.40;100.00;100736.06;5114760;27;20035;-62
2023/05/08 21:51:30;;;;;;;1.35;1.25;;;;;;;16.39;100.00;100734.41;5115614;27;20027;-63
2023/05/08 21:53:55;;;;;;;4.13;0.73;;;;;;;16.44;100.00;100729.19;5113820;27;20487;-62
2023/05/08 21:56:21;;;;;;;1.08;1.00;;;;;;;16.60;100.00;100727.78;5115219;27;20063;-62
2023/05/08 21:58:47;;;;;;;1.08;1.08;;;;;;;16.67;100.00;100715.13;5120268;27;20420;-60
2023/05/08 22:01:13;;;;;;;1.60;0.50;;;;;;;16.67;100.00;100707.91;5118198;27;20574;-61
2023/05/08 22:03:38;;;;;;;1.77;1.20;;;;;;;16.75;100.00;100710.31;5119312;27;20035;-61
2023/05/08 22:06:04;;;;;;;2.38;1.20;;;;;;;16.73;100.00;100701.69;5109788;27;20538;-61
2023/05/08 22:08:29;;;;;;;0.20;0.20;;;;;;;16.63;100.00;100693.38;5122529;27;20027;-61
2023/05/08 22:10:55;;;;;;;0.77;0.38;;;;;;;16.59;100.00;100697.53;5121652;27;20067;-62
2023/05/08 22:13:20;;;;;;;0.68;0.55;;;;;;;16.64;100.00;100684.28;5113454;27;20042;-61
2023/05/08 22:15:45;;;;;;;1.80;0.63;;;;;;;16.67;100.00;100683.00;5116589;27;20560;-63
2023/05/08 22:18:11;;;;;;;0.32;0.20;;;;;;;16.77;100.00;100677.94;5120708;27;20050;-62
2023/05/08 22:20:36;;;;;;;0.75;0.30;;;;;;;16.82;100.00;100666.56;5119994;27;20031;-62
2023/05/08 22:23:01;;;;;;;0.60;0.32;;;;;;;16.73;100.00;100666.06;5122711;27;20114;-62
2023/05/08 22:25:27;;;;;;;0.63;0.50;;;;;;;16.63;100.00;100661.25;5113418;27;20106;-62
2023/05/08 22:27:52;;;;;;;0.30;0.30;;;;;;;16.64;100.00;100662.06;5116422;27;20561;-63
2023/05/08 22:30:17;;;;;;;0.38;0.38;;;;;;;16.70;100.00;100650.44;5106064;27;20152;-63
2023/05/08 22:32:55;;;;;;;0.10;0.10;;;;;;;16.75;100.00;100659.44;5115637;27;20375;-63
2023/05/08 22:35:25;;;;;;;1.08;0.38;;;;;;;16.77;100.00;100651.16;5121355;27;20043;-62
2023/05/08 22:37:51;;;;;;;0.23;0.23;;;;;;;16.72;100.00;100651.84;5115328;27;21317;-63
2023/05/08 22:40:17;;;;;;;0.70;0.30;;;;;;;16.68;100.00;100653.34;5114180;27;20036;-63
2023/05/08 22:42:43;;;;;;;0.63;0.40;;;;;;;16.77;100.00;100643.97;5114376;27;20088;-63
2023/05/08 22:45:10;;;;;;;2.67;0.22;;;;;;;16.83;100.00;100641.41;5120891;27;20047;-63
2023/05/08 22:47:36;;;;;;;0.10;0.10;;;;;;;16.83;100.00;100638.75;5119524;27;20033;-63
2023/05/08 22:50:02;;;;;;;0.63;0.30;;;;;;;16.78;100.00;100642.94;5120651;27;21248;-62
2023/05/08 22:52:28;;;;;;;0.80;0.10;;;;;;;16.70;100.00;100637.88;5114965;27;20622;-63
2023/05/08 22:54:53;;;;;;;0.20;0.10;;;;;;;16.73;100.00;100636.59;5116852;27;20412;-62
2023/05/08 22:57:18;;;;;;;2.10;0.20;;;;;;;16.69;100.00;100632.75;5110898;27;20114;-63
2023/05/08 22:59:44;;;;;;;1.02;0.30;;;;;;;16.72;100.00;100634.97;5115732;27;20474;-59
2023/05/08 23:02:09;;;;;;;0.20;0.20;;;;;;;16.61;100.00;100630.38;5114984;27;20031;-63
2023/05/08 23:04:34;;;;;;;0.20;0.00;;;;;;;16.62;100.00;100627.47;5119006;27;20062;-62
2023/05/08 23:07:01;;;;;;;3.30;0.10;;;;;;;16.61;100.00;100623.16;5112109;27;20815;-63
2023/05/08 23:09:26;;;;;;;0.30;0.05;;;;;;;16.61;100.00;100615.13;5117251;27;20034;-63
2023/05/08 23:11:51;;;;;;;0.05;0.05;;;;;;;16.61;100.00;100623.16;5115585;27;20031;-63
2023/05/08 23:14:16;;;;;;;0.30;0.10;;;;;;;16.55;100.00;100621.41;5116240;27;20110;-64
2023/05/08 23:16:42;;;;;;;0.20;0.10;;;;;;;16.55;100.00;100614.19;5111267;27;20516;-65
2023/05/08 23:19:08;;;;;;;0.25;0.10;;;;;;;16.59;100.00;100609.19;5111665;27;20418;-64
2023/05/08 23:21:34;;;;;;;2.70;0.00;;;;;;;16.70;100.00;100605.75;5120025;27;20024;-65
2023/05/08 23:23:59;;;;;;;0.15;0.13;;;;;;;16.78;100.00;100594.75;5122742;27;20053;-65
2023/05/08 23:26:25;;;;;;;2.00;0.10;;;;;;;16.73;100.00;100591.09;5114704;27;20020;-65
2023/05/08 23:28:50;;;;;;;0.38;0.10;;;;;;;16.77;100.00;100593.09;5116894;27;20509;-64
2023/05/08 23:31:16;;;;;;;2.00;0.10;;;;;;;16.89;100.00;100598.50;5109666;27;20143;-64
2023/05/08 23:33:41;;;;;;;0.47;0.00;;;;;;;16.90;100.00;100589.41;5109767;27;20023;-65
2023/05/08 23:36:07;;;;;;;0.00;0.00;;;;;;;16.99;100.00;100593.38;5124918;27;20309;-65
2023/05/08 23:38:32;;;;;;;0.00;0.00;;;;;;;16.94;100.00;100587.09;5124305;27;20141;-64
2023/05/08 23:40:57;;;;;;;0.10;0.10;;;;;;;16.92;100.00;100586.50;5117383;27;20331;-64
2023/05/08 23:43:23;;;;;;;0.10;0.00;;;;;;;17.01;100.00;100587.78;5119374;27;20052;-63
2023/05/08 23:45:48;;;;;;;0.00;0.00;;;;;;;17.08;100.00;100588.50;5124149;27;20534;-63
2023/05/08 23:48:15;;;;;;;0.10;0.10;;;;;;;17.11;100.00;100588.03;5116483;27;20570;-64
2023/05/08 23:50:40;;;;;;;0.05;0.00;;;;;;;17.07;100.00;100586.88;5115679;27;20467;-65
2023/05/08 23:53:06;;;;;;;0.35;0.00;;;;;;;17.13;100.00;100583.25;5112934;27;20034;-65
2023/05/08 23:55:34;;;;;;;0.10;0.00;;;;;;;17.06;100.00;100577.19;5127209;27;20080;-64
2023/05/08 23:57:59;;;;;;;0.00;0.00;;;;;;;17.02;100.00;100580.59;5115333;27;20518;-64
